createdAt,value
2022-11-24T00:00:44.057Z,6.40
2022-11-24T00:05:46.726Z,6.50
2022-11-24T00:10:54.087Z,6.40
2022-11-24T00:15:57.034Z,6.50
2022-11-24T00:20:59.620Z,6.50
2022-11-24T00:26:02.192Z,6.40
2022-11-24T00:31:15.423Z,6.40
2022-11-24T00:36:19.710Z,6.30
2022-11-24T00:41:22.323Z,6.40
2022-11-24T00:46:25.030Z,6.40
2022-11-24T00:51:27.988Z,6.40
2022-11-24T00:56:30.714Z,6.40
2022-11-24T01:01:33.300Z,6.40
2022-11-24T01:06:42.448Z,6.50
2022-11-24T01:12:04.168Z,6.50
2022-11-24T01:17:06.967Z,6.50
2022-11-24T01:22:09.668Z,6.30
2022-11-24T01:27:12.277Z,6.30
2022-11-24T01:32:14.882Z,6.30
2022-11-24T01:37:17.475Z,6.10
2022-11-24T01:42:23.285Z,6.10
2022-11-24T01:47:25.846Z,6.00
2022-11-24T01:52:38.430Z,6.20
2022-11-24T01:57:41.171Z,6.10
2022-11-24T02:02:43.803Z,6.10
2022-11-24T02:07:46.511Z,6.20
2022-11-24T02:12:49.164Z,6.20
2022-11-24T02:17:51.754Z,6.10
2022-11-24T02:22:54.329Z,6.00
2022-11-24T02:27:57.006Z,6.10
2022-11-24T02:32:59.598Z,6.00
2022-11-24T02:38:02.290Z,5.90
2022-11-24T02:43:04.866Z,5.90
2022-11-24T02:48:07.480Z,5.90
2022-11-24T02:53:10.085Z,6.00
2022-11-24T02:58:15.947Z,6.00
2022-11-24T03:03:18.583Z,6.00
2022-11-24T03:08:21.261Z,6.10
2022-11-24T03:13:23.849Z,6.20
2022-11-24T03:18:26.433Z,6.10
2022-11-24T03:23:29.002Z,6.20
2022-11-24T03:28:33.957Z,6.30
2022-11-24T03:33:36.560Z,6.20
2022-11-24T03:38:39.222Z,6.30
2022-11-24T03:43:45.496Z,6.20
2022-11-24T03:48:48.468Z,6.20
2022-11-24T03:53:51.355Z,6.30
2022-11-24T03:58:53.935Z,6.30
2022-11-24T04:03:56.581Z,6.30
2022-11-24T04:08:59.250Z,6.30
2022-11-24T04:14:01.958Z,6.20
2022-11-24T04:19:04.566Z,6.30
2022-11-24T04:24:07.192Z,6.30
2022-11-24T04:29:09.853Z,6.30
2022-11-24T04:34:12.530Z,6.30
2022-11-24T04:39:24.892Z,6.30
2022-11-24T04:44:29.271Z,6.30
2022-11-24T04:49:32.225Z,6.30
2022-11-24T04:54:35.540Z,6.40
2022-11-24T04:59:38.419Z,6.40
2022-11-24T05:04:41.520Z,6.50
2022-11-24T05:09:59.677Z,6.40
2022-11-24T05:15:02.474Z,6.50
2022-11-24T05:20:05.102Z,6.60
2022-11-24T05:25:07.765Z,6.60
2022-11-24T05:30:10.811Z,6.50
2022-11-24T05:35:14.307Z,6.40
2022-11-24T05:40:16.923Z,6.40
2022-11-24T05:45:21.370Z,6.40
2022-11-24T05:50:24.075Z,6.40
2022-11-24T05:55:26.635Z,6.40
2022-11-24T06:00:29.256Z,6.50
2022-11-24T06:05:31.819Z,6.50
2022-11-24T06:10:34.698Z,6.60
2022-11-24T06:15:37.703Z,6.70
2022-11-24T06:20:40.444Z,6.70
2022-11-24T06:25:46.183Z,6.70
2022-11-24T06:30:52.785Z,6.70
2022-11-24T06:35:55.406Z,6.70
2022-11-24T06:40:58.001Z,6.80
2022-11-24T06:46:01.149Z,6.80
2022-11-24T06:51:03.827Z,6.80
2022-11-24T06:56:13.800Z,6.90
2022-11-24T07:01:18.732Z,6.90
2022-11-24T07:06:22.667Z,6.90
2022-11-24T07:11:25.345Z,7.00
2022-11-24T07:16:28.118Z,6.90
2022-11-24T07:21:31.156Z,6.90
2022-11-24T07:26:37.201Z,7.10
2022-11-24T07:31:39.889Z,7.10
2022-11-24T07:36:42.596Z,7.10
2022-11-24T07:41:49.460Z,7.00
2022-11-24T07:46:52.078Z,6.80
2022-11-24T07:51:54.730Z,6.80
2022-11-24T07:56:57.338Z,6.70
2022-11-24T08:02:00.254Z,6.70
2022-11-24T08:07:03.020Z,6.80
2022-11-24T08:12:05.680Z,6.90
2022-11-24T08:17:08.355Z,6.90
2022-11-24T08:22:11.060Z,7.00
2022-11-24T08:27:13.676Z,6.90
2022-11-24T08:32:21.751Z,7.10
2022-11-24T08:37:26.411Z,7.40
2022-11-24T08:42:29.120Z,7.60
2022-11-24T08:47:31.822Z,7.70
2022-11-24T08:52:34.413Z,7.80
2022-11-24T08:57:37.240Z,7.90
2022-11-24T09:02:40.022Z,8.00
2022-11-24T09:07:42.814Z,8.10
2022-11-24T09:12:45.596Z,8.30
2022-11-24T09:17:48.313Z,8.50
2022-11-24T09:23:01.013Z,8.80
2022-11-24T09:28:03.616Z,8.90
2022-11-24T09:33:06.289Z,8.80
2022-11-24T09:38:09.932Z,8.80
2022-11-24T09:43:12.680Z,9.00
2022-11-24T09:48:15.336Z,9.00
2022-11-24T09:53:18.008Z,9.00
2022-11-24T09:58:20.675Z,9.20
2022-11-24T10:03:23.377Z,9.20
2022-11-24T10:08:26.506Z,9.10
2022-11-24T10:13:29.164Z,9.00
2022-11-24T10:18:31.753Z,9.20
2022-11-24T10:23:39.776Z,9.30
2022-11-24T10:28:43.294Z,9.10
2022-11-24T10:33:45.966Z,8.80
2022-11-24T10:38:48.586Z,8.40
2022-11-24T10:43:51.171Z,8.20
2022-11-24T10:48:53.858Z,7.70
2022-11-24T10:53:59.685Z,7.10
2022-11-24T10:59:02.635Z,6.90
2022-11-24T11:04:05.252Z,6.70
2022-11-24T11:09:08.381Z,6.70
2022-11-24T11:14:21.006Z,6.90
2022-11-24T11:19:54.294Z,7.10
2022-11-24T11:24:46.313Z,7.20
2022-11-24T11:35:11.758Z,7.10
2022-11-24T11:40:14.611Z,7.10
2022-11-24T11:45:17.463Z,7.20
2022-11-24T11:50:20.206Z,7.30
2022-11-24T11:55:23.298Z,7.20
2022-11-24T12:00:25.899Z,7.20
2022-11-24T12:05:29.788Z,7.00
2022-11-24T12:10:34.034Z,7.10
2022-11-24T12:15:36.739Z,7.00
2022-11-24T12:20:39.507Z,7.10
2022-11-24T12:25:42.311Z,7.20
2022-11-24T12:30:44.925Z,7.50
2022-11-24T12:35:48.489Z,7.70
2022-11-24T12:40:51.081Z,7.60
2022-11-24T12:45:53.697Z,7.60
2022-11-24T12:50:56.439Z,7.70
2022-11-24T12:55:59.110Z,8.10
2022-11-24T13:01:01.795Z,8.30
2022-11-24T13:06:04.474Z,8.40
2022-11-24T13:11:07.059Z,8.50
2022-11-24T13:21:32.530Z,7.90
2022-11-24T13:26:37.535Z,7.70
2022-11-24T13:31:43.890Z,7.50
2022-11-24T13:36:46.577Z,7.50
2022-11-24T13:41:49.172Z,7.50
2022-11-24T13:46:51.912Z,7.60
2022-11-24T13:51:54.694Z,7.60
2022-11-24T13:56:57.326Z,7.60
2022-11-24T14:02:00.699Z,7.70
2022-11-24T14:12:26.659Z,7.80
2022-11-24T14:17:29.290Z,7.80
2022-11-24T14:22:31.862Z,7.80
2022-11-24T14:27:34.852Z,7.70
2022-11-24T14:32:37.855Z,7.70
2022-11-24T14:37:41.012Z,7.90
2022-11-24T14:42:44.125Z,7.70
2022-11-24T14:47:46.738Z,7.60
2022-11-24T14:52:49.309Z,7.40
2022-11-24T14:57:51.918Z,6.90
2022-11-24T15:03:00.866Z,6.10
2022-11-24T15:08:03.525Z,5.70
2022-11-24T15:13:06.224Z,5.60
2022-11-24T15:18:08.834Z,5.50
2022-11-24T15:23:11.528Z,5.50
2022-11-24T15:28:14.225Z,5.50
2022-11-24T15:33:19.350Z,5.50
2022-11-24T15:38:22.066Z,5.60
2022-11-24T15:43:24.635Z,5.40
2022-11-24T15:48:27.612Z,5.40
2022-11-24T15:53:30.347Z,5.20
2022-11-24T15:58:33.757Z,5.20
2022-11-24T16:03:46.860Z,5.10
2022-11-24T16:08:50.817Z,5.10
2022-11-24T16:13:54.601Z,5.30
2022-11-24T16:18:57.381Z,5.40
2022-11-24T16:24:00.223Z,5.50
2022-11-24T16:29:03.377Z,5.70
2022-11-24T16:34:06.094Z,5.60
2022-11-24T16:39:08.713Z,5.70
2022-11-24T16:44:11.740Z,5.70
2022-11-24T16:49:14.400Z,5.70
2022-11-24T16:54:17.281Z,5.90
2022-11-24T16:59:20.005Z,5.90
2022-11-24T17:04:22.616Z,5.90
2022-11-24T17:09:25.342Z,6.00
2022-11-24T17:14:28.012Z,5.80
2022-11-24T17:19:31.888Z,5.60
2022-11-24T17:24:35.856Z,5.50
2022-11-24T17:29:38.637Z,5.60
2022-11-24T17:34:41.276Z,5.60
2022-11-24T17:39:54.795Z,5.50
2022-11-24T17:45:06.873Z,5.50
2022-11-24T17:50:13.574Z,5.30
2022-11-24T17:55:16.215Z,5.30
2022-11-24T18:00:18.898Z,5.30
2022-11-24T18:05:21.661Z,5.20
2022-11-24T18:10:24.288Z,5.30
2022-11-24T18:15:26.872Z,5.20
2022-11-24T18:20:29.577Z,5.10
2022-11-24T18:25:33.163Z,5.00
2022-11-24T18:30:35.768Z,4.90
2022-11-24T18:35:39.589Z,4.80
2022-11-24T18:40:42.623Z,4.80
2022-11-24T18:45:55.375Z,4.70
2022-11-24T18:50:58.021Z,4.60
2022-11-24T18:56:00.592Z,4.50
2022-11-24T19:01:04.222Z,4.40
2022-11-24T19:06:06.893Z,4.30
2022-11-24T19:11:09.580Z,4.30
2022-11-24T19:16:12.259Z,4.40
2022-11-24T19:21:18.536Z,4.30
2022-11-24T19:26:21.318Z,4.20
2022-11-24T19:31:25.556Z,4.30
2022-11-24T19:36:28.307Z,4.20
2022-11-24T19:41:31.005Z,4.10
2022-11-24T19:46:33.607Z,4.00
2022-11-24T19:51:36.376Z,4.10
2022-11-24T19:56:39.120Z,4.00
2022-11-24T20:01:42.685Z,3.90
2022-11-24T20:06:45.519Z,3.80
2022-11-24T20:11:48.681Z,3.80
2022-11-24T20:16:51.674Z,3.80
2022-11-24T20:21:54.400Z,3.80
2022-11-24T20:26:58.120Z,3.80
2022-11-24T20:32:00.830Z,3.70
2022-11-24T20:37:03.586Z,3.60
2022-11-24T20:42:06.230Z,3.60
2022-11-24T20:47:09.023Z,3.50
2022-11-24T20:52:11.752Z,3.50
2022-11-24T20:57:14.360Z,3.40
2022-11-24T21:02:17.110Z,3.30
2022-11-24T21:07:19.943Z,3.30
2022-11-24T21:12:22.705Z,3.20
2022-11-24T21:17:25.421Z,3.20
2022-11-24T21:22:28.167Z,3.20
2022-11-24T21:47:46.501Z,2.90
2022-11-24T21:52:49.233Z,3.00
2022-11-24T21:57:51.893Z,3.00
2022-11-24T22:02:54.591Z,3.10
2022-11-24T22:07:57.358Z,3.10
2022-11-24T22:13:00.363Z,3.20
2022-11-24T22:18:03.167Z,3.10
2022-11-24T22:23:06.284Z,3.10
2022-11-24T22:28:08.980Z,3.00
2022-11-24T22:33:11.687Z,3.00
2022-11-24T22:38:14.315Z,3.00
2022-11-24T22:43:22.721Z,3.00
2022-11-24T22:48:25.679Z,3.00
2022-11-24T22:53:28.268Z,3.00
2022-11-24T22:58:30.912Z,3.00
2022-11-24T23:03:33.569Z,2.90
2022-11-24T23:08:36.200Z,2.90
2022-11-24T23:13:38.813Z,3.00
2022-11-24T23:18:42.978Z,3.00
2022-11-24T23:23:45.639Z,2.90
2022-11-24T23:28:48.349Z,2.80
2022-11-24T23:43:57.238Z,2.70
2022-11-24T23:48:59.903Z,2.70
2022-11-24T23:54:02.604Z,2.70
